createdAt,value
2022-07-28T00:00:18.835Z,1.73
2022-07-28T00:02:47.220Z,1.80
2022-07-28T00:05:16.862Z,1.60
2022-07-28T00:07:45.404Z,1.63
2022-07-28T00:10:14.090Z,1.60
2022-07-28T00:12:42.500Z,1.40
2022-07-28T00:15:11.997Z,1.87
2022-07-28T00:17:40.235Z,1.43
2022-07-28T00:20:10.168Z,1.50
2022-07-28T00:22:43.999Z,1.20
2022-07-28T00:25:13.300Z,1.57
2022-07-28T00:27:41.510Z,1.30
2022-07-28T00:30:11.021Z,1.73
2022-07-28T00:32:39.668Z,1.93
2022-07-28T00:35:08.850Z,1.60
2022-07-28T00:37:39.802Z,1.53
2022-07-28T00:40:11.712Z,1.27
2022-07-28T00:42:40.469Z,1.50
2022-07-28T00:45:09.585Z,1.50
2022-07-28T00:47:38.504Z,1.50
2022-07-28T00:50:07.645Z,1.87
2022-07-28T00:52:35.949Z,1.37
2022-07-28T00:55:05.707Z,1.47
2022-07-28T00:57:35.787Z,1.50
2022-07-28T01:00:05.037Z,1.20
2022-07-28T01:02:33.345Z,1.30
2022-07-28T01:05:01.829Z,1.40
2022-07-28T01:07:37.791Z,1.47
2022-07-28T01:10:14.426Z,1.33
2022-07-28T01:12:56.798Z,1.40
2022-07-28T01:15:31.985Z,1.43
2022-07-28T01:18:06.520Z,1.20
2022-07-28T01:20:39.270Z,0.93
2022-07-28T01:23:39.859Z,1.30
2022-07-28T01:26:22.676Z,1.33
2022-07-28T01:29:03.989Z,1.80
2022-07-28T01:31:40.651Z,1.37
2022-07-28T01:34:14.604Z,1.40
2022-07-28T01:36:47.448Z,1.73
2022-07-28T01:39:18.137Z,2.10
2022-07-28T01:41:48.759Z,1.17
2022-07-28T01:44:25.124Z,1.27
2022-07-28T01:46:57.433Z,1.30
2022-07-28T01:49:29.392Z,1.27
2022-07-28T01:51:58.645Z,1.60
2022-07-28T01:54:28.552Z,2.00
2022-07-28T01:56:58.973Z,1.53
2022-07-28T01:59:29.376Z,1.30
2022-07-28T02:02:03.462Z,1.00
2022-07-28T02:04:34.784Z,1.80
2022-07-28T02:07:05.050Z,1.20
2022-07-28T02:09:35.706Z,1.50
2022-07-28T02:12:05.967Z,1.63
2022-07-28T02:14:36.446Z,1.20
2022-07-28T02:17:12.206Z,2.10
2022-07-28T02:19:42.758Z,1.40
2022-07-28T02:22:12.120Z,1.23
2022-07-28T02:24:42.669Z,1.40
2022-07-28T02:27:17.029Z,1.47
2022-07-28T02:29:52.144Z,1.43
2022-07-28T02:32:28.649Z,1.20
2022-07-28T02:35:02.326Z,1.60
2022-07-28T02:37:36.485Z,1.30
2022-07-28T02:40:07.733Z,1.40
2022-07-28T02:42:37.452Z,1.80
2022-07-28T02:45:09.870Z,1.40
2022-07-28T02:47:45.232Z,1.20
2022-07-28T02:50:15.537Z,1.77
2022-07-28T02:52:45.969Z,2.03
2022-07-28T02:55:16.626Z,1.50
2022-07-28T02:57:45.761Z,1.47
2022-07-28T03:00:15.361Z,1.30
2022-07-28T03:02:47.143Z,1.60
2022-07-28T03:05:16.617Z,2.10
2022-07-28T03:07:51.209Z,1.27
2022-07-28T03:10:32.953Z,1.90
2022-07-28T03:13:03.709Z,1.60
2022-07-28T03:15:32.276Z,1.80
2022-07-28T03:18:03.145Z,1.40
2022-07-28T03:20:31.678Z,1.43
2022-07-28T03:23:00.595Z,1.77
2022-07-28T03:25:38.950Z,1.20
2022-07-28T03:28:09.469Z,1.70
2022-07-28T03:30:43.689Z,1.37
2022-07-28T03:33:13.595Z,1.20
2022-07-28T03:35:48.849Z,1.37
2022-07-28T03:38:22.785Z,1.83
2022-07-28T03:40:54.059Z,1.23
2022-07-28T03:43:25.324Z,1.50
2022-07-28T03:45:53.623Z,1.53
2022-07-28T03:48:29.117Z,1.63
2022-07-28T03:50:57.604Z,1.40
2022-07-28T03:53:28.169Z,1.20
2022-07-28T03:55:56.878Z,1.33
2022-07-28T03:58:28.723Z,1.63
2022-07-28T04:00:58.103Z,1.07
2022-07-28T04:03:43.114Z,1.80
2022-07-28T04:06:12.917Z,1.77
2022-07-28T04:08:41.738Z,1.67
2022-07-28T04:11:10.179Z,1.50
2022-07-28T04:13:38.518Z,1.30
2022-07-28T04:16:08.128Z,1.30
2022-07-28T04:18:38.362Z,1.47
2022-07-28T04:21:07.844Z,1.57
2022-07-28T04:23:36.167Z,1.87
2022-07-28T04:26:04.519Z,1.03
2022-07-28T04:28:33.055Z,1.30
2022-07-28T04:31:03.817Z,1.93
2022-07-28T04:33:32.077Z,1.50
2022-07-28T04:36:02.432Z,2.60
2022-07-28T04:38:30.685Z,1.50
2022-07-28T04:40:59.053Z,2.00
2022-07-28T04:43:27.530Z,1.70
2022-07-28T04:45:55.836Z,1.97
2022-07-28T04:48:24.909Z,1.90
2022-07-28T04:50:53.796Z,1.60
2022-07-28T04:53:24.235Z,1.53
2022-07-28T04:55:54.660Z,1.43
2022-07-28T04:58:23.595Z,1.60
2022-07-28T05:00:53.075Z,1.47
2022-07-28T05:03:21.843Z,1.13
2022-07-28T05:05:54.219Z,1.47
2022-07-28T05:08:26.804Z,1.10
2022-07-28T05:10:57.101Z,1.97
2022-07-28T05:13:31.887Z,1.30
2022-07-28T05:16:02.525Z,1.67
2022-07-28T05:18:31.052Z,1.73
2022-07-28T05:20:59.596Z,1.47
2022-07-28T05:23:29.381Z,1.80
2022-07-28T05:25:57.770Z,1.70
2022-07-28T05:28:26.073Z,1.70
2022-07-28T05:30:54.587Z,1.80
2022-07-28T05:33:24.948Z,1.90
2022-07-28T05:36:00.568Z,1.60
2022-07-28T05:38:31.680Z,2.07
2022-07-28T05:41:00.630Z,1.90
2022-07-28T05:43:29.059Z,1.50
2022-07-28T05:45:57.471Z,1.20
2022-07-28T05:48:25.947Z,1.20
2022-07-28T05:50:55.245Z,2.00
2022-07-28T05:53:23.728Z,1.30
2022-07-28T05:56:00.544Z,1.37
2022-07-28T05:58:30.693Z,1.60
2022-07-28T06:01:01.023Z,1.67
2022-07-28T06:03:32.119Z,1.40
2022-07-28T06:06:16.079Z,1.30
2022-07-28T06:08:46.856Z,1.67
2022-07-28T06:11:22.147Z,2.03
2022-07-28T06:13:52.399Z,1.50
2022-07-28T06:16:23.464Z,2.00
2022-07-28T06:18:52.577Z,1.40
2022-07-28T06:21:22.878Z,1.50
2022-07-28T06:23:51.136Z,2.07
2022-07-28T06:26:23.547Z,1.73
2022-07-28T06:28:52.332Z,1.70
2022-07-28T06:31:20.731Z,1.40
2022-07-28T06:33:49.170Z,1.50
2022-07-28T06:36:17.374Z,1.40
2022-07-28T06:38:45.595Z,1.30
2022-07-28T06:41:13.902Z,1.60
2022-07-28T06:43:43.708Z,2.10
2022-07-28T06:46:12.177Z,1.70
2022-07-28T06:48:43.422Z,2.10
2022-07-28T06:51:11.884Z,1.57
2022-07-28T06:53:40.390Z,1.50
2022-07-28T06:56:08.939Z,1.37
2022-07-28T06:58:47.240Z,1.53
2022-07-28T07:01:16.116Z,1.97
2022-07-28T07:03:45.007Z,1.80
2022-07-28T07:06:13.323Z,1.80
2022-07-28T07:08:41.572Z,1.80
2022-07-28T07:11:09.844Z,1.60
2022-07-28T07:13:38.149Z,2.13
2022-07-28T07:16:08.352Z,2.50
2022-07-28T07:18:36.747Z,1.80
2022-07-28T07:21:05.431Z,1.93
2022-07-28T07:23:35.544Z,1.47
2022-07-28T07:26:04.449Z,2.20
2022-07-28T07:28:34.316Z,1.60
2022-07-28T07:31:02.654Z,2.30
2022-07-28T07:33:32.531Z,1.60
2022-07-28T07:36:01.089Z,1.67
2022-07-28T07:38:29.545Z,1.50
2022-07-28T07:40:58.196Z,2.07
2022-07-28T07:43:26.556Z,1.80
2022-07-28T07:45:55.040Z,1.87
2022-07-28T07:48:23.425Z,1.73
2022-07-28T07:50:54.600Z,1.90
2022-07-28T07:53:22.984Z,1.90
2022-07-28T07:55:52.227Z,2.10
2022-07-28T07:58:20.815Z,1.80
2022-07-28T08:00:49.140Z,1.60
2022-07-28T08:03:22.490Z,1.77
2022-07-28T08:05:56.453Z,1.57
2022-07-28T08:08:25.950Z,1.77
2022-07-28T08:10:54.475Z,1.80
2022-07-28T08:13:23.388Z,1.83
2022-07-28T08:15:52.074Z,2.20
2022-07-28T08:18:20.661Z,1.77
2022-07-28T08:20:48.858Z,1.87
2022-07-28T08:23:24.301Z,1.97
2022-07-28T08:25:54.657Z,1.77
2022-07-28T08:28:23.360Z,1.87
2022-07-28T08:30:52.390Z,1.70
2022-07-28T08:33:21.926Z,1.77
2022-07-28T08:35:50.973Z,1.60
2022-07-28T08:38:20.839Z,1.77
2022-07-28T08:40:51.520Z,1.93
2022-07-28T08:43:30.756Z,1.63
2022-07-28T08:46:01.299Z,1.80
2022-07-28T08:48:32.309Z,1.77
2022-07-28T08:51:04.601Z,2.00
2022-07-28T08:53:36.913Z,2.13
2022-07-28T08:56:07.371Z,1.60
2022-07-28T08:58:37.593Z,2.27
2022-07-28T09:01:08.697Z,1.90
2022-07-28T09:03:38.278Z,1.93
2022-07-28T09:06:07.506Z,2.13
2022-07-28T09:08:37.216Z,2.73
2022-07-28T09:11:06.907Z,2.00
2022-07-28T09:13:36.100Z,2.00
2022-07-28T09:16:07.218Z,2.43
2022-07-28T09:18:35.611Z,2.40
2022-07-28T09:21:04.067Z,2.00
2022-07-28T09:23:46.442Z,2.67
2022-07-28T09:26:14.685Z,2.07
2022-07-28T09:28:53.669Z,2.27
2022-07-28T09:31:23.505Z,2.40
2022-07-28T09:34:01.567Z,2.60
2022-07-28T09:36:30.914Z,2.50
2022-07-28T09:39:00.644Z,2.63
2022-07-28T09:41:28.881Z,2.30
2022-07-28T09:43:57.438Z,2.67
2022-07-28T09:46:29.475Z,2.90
2022-07-28T09:49:01.332Z,2.43
2022-07-28T09:51:31.028Z,2.07
2022-07-28T09:54:11.691Z,2.33
2022-07-28T09:56:43.245Z,2.17
2022-07-28T09:59:14.651Z,2.50
2022-07-28T10:01:58.341Z,2.50
2022-07-28T10:04:33.130Z,2.50
2022-07-28T10:07:06.916Z,2.80
2022-07-28T10:09:36.898Z,2.23
2022-07-28T10:12:19.748Z,2.10
2022-07-28T10:14:48.546Z,2.73
2022-07-28T10:17:24.999Z,2.80
2022-07-28T10:19:55.192Z,2.40
2022-07-28T10:22:26.616Z,2.47
2022-07-28T10:24:57.629Z,2.43
2022-07-28T10:27:27.432Z,2.50
2022-07-28T10:29:59.800Z,2.00
2022-07-28T10:32:30.006Z,3.37
2022-07-28T10:35:04.075Z,2.93
2022-07-28T10:37:38.627Z,2.27
2022-07-28T10:40:11.202Z,2.60
2022-07-28T10:42:41.160Z,3.10
2022-07-28T10:45:11.956Z,2.83
2022-07-28T10:47:40.703Z,2.37
2022-07-28T10:50:10.027Z,2.50
2022-07-28T10:52:50.159Z,2.67
2022-07-28T10:55:32.244Z,2.90
2022-07-28T10:58:12.001Z,2.83
2022-07-28T11:00:58.271Z,3.23
2022-07-28T11:03:40.752Z,3.10
2022-07-28T11:06:28.734Z,3.40
2022-07-28T11:08:58.354Z,3.03
2022-07-28T11:11:46.802Z,3.50
2022-07-28T11:14:37.565Z,2.93
2022-07-28T11:17:24.426Z,3.37
2022-07-28T11:22:51.939Z,2.93
2022-07-28T11:25:22.556Z,3.10
2022-07-28T11:28:08.066Z,2.67
2022-07-28T11:30:58.164Z,2.97
2022-07-28T11:33:47.249Z,2.77
2022-07-28T11:36:16.124Z,2.83
2022-07-28T11:39:21.901Z,2.80
2022-07-28T11:41:50.966Z,2.70
2022-07-28T11:44:29.288Z,3.07
2022-07-28T11:47:17.592Z,3.17
2022-07-28T11:49:47.235Z,3.17
2022-07-28T11:52:31.895Z,3.60
2022-07-28T11:55:00.618Z,3.20
2022-07-28T11:57:29.533Z,2.70
2022-07-28T12:00:04.517Z,3.13
2022-07-28T12:02:35.663Z,3.30
2022-07-28T12:05:13.400Z,2.70
2022-07-28T12:07:47.091Z,2.80
2022-07-28T12:13:29.244Z,2.80
2022-07-28T12:15:59.127Z,2.50
2022-07-28T12:18:27.435Z,3.00
2022-07-28T12:20:56.027Z,3.43
2022-07-28T12:23:45.546Z,3.23
2022-07-28T12:26:31.767Z,2.80
2022-07-28T12:29:01.418Z,3.27
2022-07-28T12:31:33.367Z,2.70
2022-07-28T12:34:02.377Z,3.20
2022-07-28T12:36:31.389Z,2.87
2022-07-28T12:39:00.359Z,3.17
2022-07-28T12:41:33.735Z,3.37
2022-07-28T12:44:05.643Z,3.07
2022-07-28T12:46:36.180Z,4.03
2022-07-28T12:49:04.756Z,3.10
2022-07-28T12:51:34.828Z,3.00
2022-07-28T12:54:04.191Z,3.10
2022-07-28T12:56:33.239Z,3.00
2022-07-28T12:59:10.303Z,3.50
2022-07-28T13:01:51.442Z,3.47
2022-07-28T13:04:39.553Z,3.63
2022-07-28T13:07:10.744Z,3.80
2022-07-28T13:09:47.141Z,3.80
2022-07-28T13:12:18.329Z,3.13
2022-07-28T13:14:51.915Z,3.00
2022-07-28T13:17:23.293Z,4.33
2022-07-28T13:19:52.252Z,3.50
2022-07-28T13:22:30.347Z,3.70
2022-07-28T13:24:58.587Z,3.70
2022-07-28T13:27:27.341Z,3.80
2022-07-28T13:29:56.424Z,3.67
2022-07-28T13:32:26.208Z,3.60
2022-07-28T13:34:55.388Z,3.60
2022-07-28T13:37:24.840Z,3.87
2022-07-28T13:39:54.687Z,3.80
2022-07-28T13:42:23.638Z,3.50
2022-07-28T13:44:52.621Z,3.40
2022-07-28T13:47:20.929Z,3.77
2022-07-28T13:49:50.894Z,3.30
2022-07-28T13:52:32.919Z,4.80
2022-07-28T13:55:06.243Z,3.43
2022-07-28T13:57:36.358Z,3.20
2022-07-28T14:00:07.929Z,3.93
2022-07-28T14:02:37.123Z,3.23
2022-07-28T14:05:07.440Z,3.23
2022-07-28T14:07:35.772Z,3.70
2022-07-28T14:10:07.010Z,4.00
2022-07-28T14:12:37.573Z,3.50
2022-07-28T14:15:10.489Z,3.50
2022-07-28T14:17:45.635Z,3.33
2022-07-28T14:20:16.779Z,3.07
2022-07-28T14:22:46.410Z,3.60
2022-07-28T14:25:20.562Z,2.77
2022-07-28T14:27:50.958Z,3.97
2022-07-28T14:30:20.448Z,3.23
2022-07-28T14:32:48.965Z,3.33
2022-07-28T14:35:19.056Z,3.53
2022-07-28T14:38:35.054Z,3.00
2022-07-28T14:40:39.171Z,3.07
2022-07-28T14:43:08.947Z,3.63
2022-07-28T14:45:51.411Z,3.63
2022-07-28T14:48:25.558Z,3.23
2022-07-28T14:50:56.988Z,4.03
2022-07-28T14:53:28.076Z,3.33
2022-07-28T14:55:57.052Z,4.23
2022-07-28T14:58:25.827Z,3.77
2022-07-28T15:00:56.117Z,2.63
2022-07-28T15:03:26.856Z,3.17
2022-07-28T15:05:57.790Z,3.67
2022-07-28T15:08:29.275Z,2.80
2022-07-28T15:10:58.367Z,3.43
2022-07-28T15:13:26.740Z,3.30
2022-07-28T15:15:59.856Z,3.30
2022-07-28T15:18:28.333Z,3.60
2022-07-28T15:20:58.007Z,3.70
2022-07-28T15:23:26.279Z,3.87
2022-07-28T15:25:56.033Z,3.50
2022-07-28T15:28:24.291Z,3.73
2022-07-28T15:30:52.806Z,4.00
2022-07-28T15:33:21.632Z,3.80
2022-07-28T15:35:56.503Z,3.30
2022-07-28T15:38:29.515Z,3.60
2022-07-28T15:40:59.840Z,2.77
2022-07-28T15:43:28.259Z,3.50
2022-07-28T15:45:57.558Z,3.20
2022-07-28T15:48:26.265Z,2.73
2022-07-28T15:50:54.413Z,3.73
2022-07-28T15:53:22.951Z,3.10
2022-07-28T15:55:52.751Z,3.53
2022-07-28T15:58:21.499Z,4.97
2022-07-28T16:00:50.035Z,3.87
2022-07-28T16:03:18.941Z,3.70
2022-07-28T16:05:49.806Z,3.57
2022-07-28T16:08:18.743Z,3.37
2022-07-28T16:10:54.328Z,3.40
2022-07-28T16:13:33.409Z,3.50
2022-07-28T16:16:06.588Z,3.73
2022-07-28T16:18:34.961Z,3.33
2022-07-28T16:21:03.180Z,3.90
2022-07-28T16:23:31.396Z,3.13
2022-07-28T16:26:01.146Z,3.50
2022-07-28T16:28:29.456Z,3.80
2022-07-28T16:30:57.817Z,2.83
2022-07-28T16:33:26.194Z,3.40
2022-07-28T16:35:54.311Z,3.10
2022-07-28T16:38:22.742Z,3.23
2022-07-28T16:40:51.301Z,3.80
2022-07-28T16:43:21.325Z,3.87
2022-07-28T16:45:49.553Z,3.37
2022-07-28T16:48:17.779Z,3.10
2022-07-28T16:50:46.486Z,2.80
2022-07-28T16:53:14.843Z,3.83
2022-07-28T16:55:43.180Z,3.67
2022-07-28T16:58:11.957Z,3.63
2022-07-28T17:00:42.071Z,2.70
2022-07-28T17:03:11.056Z,2.80
2022-07-28T17:05:39.613Z,2.50
2022-07-28T17:08:09.235Z,3.73
2022-07-28T17:10:40.844Z,3.20
2022-07-28T17:13:12.015Z,3.13
2022-07-28T17:15:43.019Z,2.97
2022-07-28T17:18:12.439Z,3.20
2022-07-28T17:20:42.068Z,2.97
2022-07-28T17:23:10.475Z,3.37
2022-07-28T17:26:16.193Z,3.40
2022-07-28T17:28:27.668Z,3.50
2022-07-28T17:30:57.343Z,4.07
2022-07-28T17:33:26.832Z,3.97
2022-07-28T17:35:56.627Z,3.23
2022-07-28T17:38:31.001Z,3.93
2022-07-28T17:41:03.967Z,3.57
2022-07-28T17:43:32.781Z,3.37
2022-07-28T17:46:02.895Z,3.70
2022-07-28T17:48:38.535Z,3.27
2022-07-28T17:51:06.831Z,3.50
2022-07-28T17:53:39.274Z,3.60
2022-07-28T17:56:08.572Z,3.40
2022-07-28T17:58:37.443Z,3.27
2022-07-28T18:01:12.088Z,3.63
2022-07-28T18:03:57.119Z,3.50
2022-07-28T18:06:30.795Z,4.00
2022-07-28T18:09:05.243Z,3.70
2022-07-28T18:11:37.616Z,4.03
2022-07-28T18:14:24.805Z,3.30
2022-07-28T18:16:54.685Z,3.67
2022-07-28T18:19:23.108Z,3.07
2022-07-28T18:21:51.504Z,3.80
2022-07-28T18:24:22.402Z,3.80
2022-07-28T18:26:51.531Z,2.87
2022-07-28T18:29:21.442Z,3.90
2022-07-28T18:31:51.049Z,3.27
2022-07-28T18:34:23.488Z,3.50
2022-07-28T18:36:53.921Z,3.30
2022-07-28T18:39:22.363Z,3.23
2022-07-28T18:41:50.591Z,3.60
2022-07-28T18:44:20.048Z,3.53
2022-07-28T18:46:48.743Z,3.00
2022-07-28T18:49:17.052Z,3.50
2022-07-28T18:51:47.021Z,2.47
2022-07-28T18:54:19.925Z,2.80
2022-07-28T18:56:50.139Z,2.90
2022-07-28T18:59:18.620Z,3.00
2022-07-28T19:01:47.059Z,3.43
2022-07-28T19:04:15.817Z,3.33
2022-07-28T19:06:44.599Z,2.77
2022-07-28T19:09:14.291Z,2.67
2022-07-28T19:11:45.961Z,2.67
2022-07-28T19:14:16.011Z,3.33
2022-07-28T19:16:44.930Z,3.20
2022-07-28T19:19:14.525Z,3.77
2022-07-28T19:21:43.812Z,3.13
2022-07-28T19:24:14.913Z,3.30
2022-07-28T19:26:45.578Z,2.90
2022-07-28T19:29:14.428Z,3.27
2022-07-28T19:31:43.061Z,3.10
2022-07-28T19:34:11.915Z,3.10
2022-07-28T19:36:41.803Z,3.80
2022-07-28T19:39:10.558Z,3.57
2022-07-28T19:41:40.586Z,3.63
2022-07-28T19:44:09.637Z,3.53
2022-07-28T19:46:39.395Z,3.43
2022-07-28T19:49:08.114Z,3.43
2022-07-28T19:51:36.383Z,3.10
2022-07-28T19:54:05.258Z,3.63
2022-07-28T19:56:33.676Z,3.60
2022-07-28T19:59:04.187Z,3.37
2022-07-28T20:01:32.408Z,3.37
2022-07-28T20:04:04.989Z,3.13
2022-07-28T20:06:34.450Z,3.40
2022-07-28T20:09:03.457Z,3.10
2022-07-28T20:11:33.024Z,3.47
2022-07-28T20:14:03.544Z,3.50
2022-07-28T20:16:32.104Z,3.77
2022-07-28T20:19:00.672Z,3.63
2022-07-28T20:21:28.967Z,4.17
2022-07-28T20:24:07.856Z,3.40
2022-07-28T20:26:36.254Z,4.30
2022-07-28T20:29:06.101Z,3.17
2022-07-28T20:31:36.842Z,3.37
2022-07-28T20:34:06.901Z,3.60
2022-07-28T20:36:35.427Z,3.63
2022-07-28T20:39:21.026Z,3.27
2022-07-28T20:41:52.196Z,3.80
2022-07-28T20:44:29.989Z,3.47
2022-07-28T20:47:00.877Z,3.90
2022-07-28T20:49:29.407Z,3.83
2022-07-28T20:51:58.168Z,3.73
2022-07-28T20:54:27.525Z,3.90
2022-07-28T20:56:56.083Z,4.00
2022-07-28T20:59:27.905Z,3.17
2022-07-28T21:01:56.409Z,3.93
2022-07-28T21:04:25.152Z,4.00
2022-07-28T21:07:01.862Z,3.57
2022-07-28T21:09:30.738Z,4.53
2022-07-28T21:11:58.955Z,3.60
2022-07-28T21:14:28.612Z,3.23
2022-07-28T21:16:57.029Z,3.07
2022-07-28T21:19:25.458Z,3.40
2022-07-28T21:21:53.764Z,3.43
2022-07-28T21:24:22.483Z,2.80
2022-07-28T21:26:51.832Z,4.13
2022-07-28T21:32:04.413Z,3.57
2022-07-28T21:34:34.992Z,3.70
2022-07-28T21:37:03.692Z,3.10
2022-07-28T21:39:32.347Z,3.40
2022-07-28T21:42:01.331Z,3.80
2022-07-28T21:44:30.525Z,3.20
2022-07-28T21:47:00.364Z,3.17
2022-07-28T21:49:29.272Z,3.87
2022-07-28T21:51:57.804Z,3.53
2022-07-28T21:54:26.151Z,3.80
2022-07-28T21:56:54.436Z,4.10
2022-07-28T21:59:23.016Z,3.57
2022-07-28T22:01:51.310Z,4.37
2022-07-28T22:04:21.593Z,3.80
2022-07-28T22:06:50.181Z,4.10
2022-07-28T22:09:18.505Z,4.20
2022-07-28T22:11:47.017Z,3.87
2022-07-28T22:14:15.543Z,4.50
2022-07-28T22:16:44.147Z,4.00
2022-07-28T22:19:12.934Z,4.67
2022-07-28T22:21:42.573Z,4.70
2022-07-28T22:24:10.857Z,4.47
2022-07-28T22:26:39.068Z,4.00
2022-07-28T22:29:07.320Z,4.57
2022-07-28T22:31:35.558Z,4.40
2022-07-28T22:34:04.094Z,3.90
2022-07-28T22:36:32.319Z,4.03
2022-07-28T22:39:02.136Z,3.97
2022-07-28T22:41:30.449Z,4.37
2022-07-28T22:43:58.802Z,3.50
2022-07-28T22:46:27.196Z,4.77
2022-07-28T22:48:55.528Z,4.00
2022-07-28T22:51:23.790Z,4.80
2022-07-28T22:53:52.042Z,4.17
2022-07-28T22:56:21.713Z,4.50
2022-07-28T22:58:49.977Z,4.40
2022-07-28T23:01:18.208Z,4.10
2022-07-28T23:03:47.533Z,4.17
2022-07-28T23:06:15.970Z,4.20
2022-07-28T23:08:44.613Z,4.57
2022-07-28T23:11:13.001Z,4.57
2022-07-28T23:13:42.696Z,4.40
2022-07-28T23:16:11.781Z,3.40
2022-07-28T23:18:40.522Z,4.03
2022-07-28T23:21:09.363Z,4.10
2022-07-28T23:23:37.834Z,4.13
2022-07-28T23:26:06.425Z,4.03
2022-07-28T23:28:36.203Z,4.00
2022-07-28T23:31:06.204Z,4.10
2022-07-28T23:33:55.376Z,3.67
2022-07-28T23:36:26.623Z,3.60
2022-07-28T23:38:56.885Z,4.13
2022-07-28T23:41:25.669Z,5.07
2022-07-28T23:43:54.126Z,6.80
2022-07-28T23:46:24.807Z,6.27
2022-07-28T23:48:53.214Z,5.63
2022-07-28T23:51:22.628Z,4.20
2022-07-28T23:54:09.360Z,5.03
2022-07-28T23:56:37.696Z,4.77
2022-07-28T23:59:08.269Z,4.33
